createdAt,value
2024-05-09T00:00:40.818Z,1012.08
2024-05-09T00:01:40.403Z,1012.07
2024-05-09T00:02:41.116Z,1012.08
2024-05-09T00:03:41.973Z,1012.09
2024-05-09T00:04:42.861Z,1012.09
2024-05-09T00:05:44.232Z,1012.10
2024-05-09T00:06:44.214Z,1012.10
2024-05-09T00:07:45.038Z,1012.09
2024-05-09T00:08:45.791Z,1012.11
2024-05-09T00:09:46.572Z,1012.08
2024-05-09T00:10:47.426Z,1012.07
2024-05-09T00:11:48.331Z,1012.07
2024-05-09T00:12:49.105Z,1012.06
2024-05-09T00:13:49.912Z,1012.07
2024-05-09T00:14:50.659Z,1012.07
2024-05-09T00:15:51.402Z,1012.04
2024-05-09T00:16:52.163Z,1012.05
2024-05-09T00:17:53.145Z,1012.04
2024-05-09T00:18:53.600Z,1012.06
2024-05-09T00:19:54.301Z,1012.05
2024-05-09T00:20:55.084Z,1012.07
2024-05-09T00:21:55.812Z,1012.07
2024-05-09T00:22:56.613Z,1012.07
2024-05-09T00:23:57.367Z,1012.06
2024-05-09T00:24:58.182Z,1012.07
2024-05-09T00:25:58.986Z,1012.07
2024-05-09T00:26:59.743Z,1012.05
2024-05-09T00:28:00.552Z,1012.06
2024-05-09T00:29:01.307Z,1012.06
2024-05-09T00:30:03.927Z,1012.04
2024-05-09T00:31:02.794Z,1012.03
2024-05-09T00:32:03.702Z,1012.04
2024-05-09T00:33:05.180Z,1012.03
2024-05-09T00:34:05.105Z,1012.03
2024-05-09T00:35:05.446Z,1012.05
2024-05-09T00:36:06.163Z,1012.06
2024-05-09T00:37:06.938Z,1012.05
2024-05-09T00:38:07.817Z,1012.05
2024-05-09T00:39:08.588Z,1012.07
2024-05-09T00:40:15.108Z,1012.08
2024-05-09T00:41:11.291Z,1012.05
2024-05-09T00:42:10.565Z,1012.06
2024-05-09T00:43:12.209Z,1012.07
2024-05-09T00:44:11.925Z,1012.08
2024-05-09T00:45:12.651Z,1012.08
2024-05-09T00:46:13.441Z,1012.07
2024-05-09T00:47:14.353Z,1012.06
2024-05-09T00:48:17.778Z,1012.04
2024-05-09T00:49:16.235Z,1012.03
2024-05-09T00:50:22.951Z,1012.03
2024-05-09T00:51:18.693Z,1012.03
2024-05-09T00:52:18.422Z,1012.00
2024-05-09T00:53:19.345Z,1012.01
2024-05-09T00:54:20.130Z,1012.01
2024-05-09T00:55:20.984Z,1012.01
2024-05-09T00:56:21.710Z,1012.02
2024-05-09T00:57:22.487Z,1012.02
2024-05-09T00:58:23.222Z,1012.02
2024-05-09T00:59:24.143Z,1012.01
2024-05-09T01:00:31.665Z,1012.02
2024-05-09T01:01:26.590Z,1012.03
2024-05-09T01:02:26.397Z,1012.03
2024-05-09T01:03:27.654Z,1012.03
2024-05-09T01:04:28.147Z,1012.05
2024-05-09T01:05:28.948Z,1012.03
2024-05-09T01:06:29.672Z,1012.03
2024-05-09T01:07:30.412Z,1012.03
2024-05-09T01:08:31.374Z,1012.03
2024-05-09T01:09:31.725Z,1012.02
2024-05-09T01:10:35.038Z,1012.01
2024-05-09T01:11:33.579Z,1012.00
2024-05-09T01:12:34.431Z,1011.98
2024-05-09T01:13:35.236Z,1011.97
2024-05-09T01:14:36.029Z,1011.97
2024-05-09T01:15:36.763Z,1012.00
2024-05-09T01:16:37.515Z,1012.02
2024-05-09T01:17:38.409Z,1012.01
2024-05-09T01:18:39.275Z,1012.02
2024-05-09T01:19:40.125Z,1012.04
2024-05-09T01:20:43.819Z,1012.03
2024-05-09T01:21:41.443Z,1012.05
2024-05-09T01:22:42.396Z,1012.06
2024-05-09T01:23:43.268Z,1012.10
2024-05-09T01:24:44.027Z,1012.09
2024-05-09T01:25:45.321Z,1012.08
2024-05-09T01:26:45.766Z,1012.09
2024-05-09T01:27:46.524Z,1012.10
2024-05-09T01:28:47.324Z,1012.11
2024-05-09T01:29:48.104Z,1012.10
2024-05-09T01:30:48.902Z,1012.09
2024-05-09T01:31:49.707Z,1012.08
2024-05-09T01:32:50.762Z,1012.09
2024-05-09T01:33:51.316Z,1012.08
2024-05-09T01:34:52.183Z,1012.08
2024-05-09T01:35:52.895Z,1012.10
2024-05-09T01:36:53.652Z,1012.08
2024-05-09T01:37:54.472Z,1012.10
2024-05-09T01:38:55.219Z,1012.09
2024-05-09T01:39:55.973Z,1012.08
2024-05-09T01:40:56.837Z,1012.06
2024-05-09T01:41:57.612Z,1012.07
2024-05-09T01:42:58.390Z,1012.07
2024-05-09T01:43:59.210Z,1012.08
2024-05-09T01:44:59.940Z,1012.07
2024-05-09T01:46:00.726Z,1012.07
2024-05-09T01:47:01.541Z,1012.10
2024-05-09T01:48:03.040Z,1012.09
2024-05-09T01:49:03.306Z,1012.11
2024-05-09T01:50:06.776Z,1012.11
2024-05-09T01:51:05.142Z,1012.12
2024-05-09T01:52:05.868Z,1012.15
2024-05-09T01:53:06.743Z,1012.15
2024-05-09T01:54:07.508Z,1012.14
2024-05-09T01:55:08.268Z,1012.15
2024-05-09T01:56:09.078Z,1012.15
2024-05-09T01:57:09.805Z,1012.16
2024-05-09T01:58:10.563Z,1012.15
2024-05-09T01:59:11.490Z,1012.16
2024-05-09T02:01:13.111Z,1012.16
2024-05-09T02:02:13.966Z,1012.18
2024-05-09T02:03:17.164Z,1012.19
2024-05-09T02:04:15.843Z,1012.20
2024-05-09T02:05:16.739Z,1012.20
2024-05-09T02:06:17.511Z,1012.21
2024-05-09T02:07:18.266Z,1012.21
2024-05-09T02:08:19.482Z,1012.20
2024-05-09T02:09:19.951Z,1012.24
2024-05-09T02:10:26.348Z,1012.24
2024-05-09T02:11:22.482Z,1012.24
2024-05-09T02:12:22.455Z,1012.25
2024-05-09T02:13:23.232Z,1012.24
2024-05-09T02:14:24.197Z,1012.24
2024-05-09T02:15:24.518Z,1012.24
2024-05-09T02:16:25.265Z,1012.25
2024-05-09T02:17:26.245Z,1012.23
2024-05-09T02:18:26.633Z,1012.24
2024-05-09T02:19:27.575Z,1012.23
2024-05-09T02:20:34.132Z,1012.21
2024-05-09T02:21:29.990Z,1012.22
2024-05-09T02:22:29.740Z,1012.22
2024-05-09T02:23:30.634Z,1012.23
2024-05-09T02:24:31.499Z,1012.25
2024-05-09T02:25:32.682Z,1012.27
2024-05-09T02:26:33.114Z,1012.28
2024-05-09T02:27:33.834Z,1012.28
2024-05-09T02:28:34.582Z,1012.26
2024-05-09T02:29:35.526Z,1012.25
2024-05-09T02:30:40.550Z,1012.23
2024-05-09T02:31:37.911Z,1012.23
2024-05-09T02:32:37.891Z,1012.22
2024-05-09T02:33:38.390Z,1012.21
2024-05-09T02:34:38.840Z,1012.25
2024-05-09T02:35:39.647Z,1012.25
2024-05-09T02:36:40.445Z,1012.26
2024-05-09T02:37:41.223Z,1012.27
2024-05-09T02:38:42.102Z,1012.27
2024-05-09T02:39:42.815Z,1012.26
2024-05-09T02:40:43.605Z,1012.25
2024-05-09T02:41:44.318Z,1012.25
2024-05-09T02:42:45.100Z,1012.24
2024-05-09T02:43:45.888Z,1012.22
2024-05-09T02:44:46.651Z,1012.22
2024-05-09T02:45:47.391Z,1012.19
2024-05-09T02:46:48.209Z,1012.21
2024-05-09T02:47:49.174Z,1012.21
2024-05-09T02:48:49.573Z,1012.20
2024-05-09T02:49:50.445Z,1012.20
2024-05-09T02:50:51.223Z,1012.22
2024-05-09T02:51:51.962Z,1012.22
2024-05-09T02:52:52.815Z,1012.22
2024-05-09T02:53:53.512Z,1012.23
2024-05-09T02:54:54.279Z,1012.25
2024-05-09T02:55:55.117Z,1012.24
2024-05-09T02:56:55.557Z,1012.25
2024-05-09T02:57:56.315Z,1012.24
2024-05-09T02:58:57.128Z,1012.25
2024-05-09T02:59:57.874Z,1012.25
2024-05-09T03:00:58.700Z,1012.25
2024-05-09T03:01:59.716Z,1012.24
2024-05-09T03:03:00.218Z,1012.26
2024-05-09T03:04:00.676Z,1012.27
2024-05-09T03:05:01.543Z,1012.29
2024-05-09T03:06:02.335Z,1012.29
2024-05-09T03:07:03.089Z,1012.32
2024-05-09T03:08:04.034Z,1012.33
2024-05-09T03:09:04.391Z,1012.35
2024-05-09T03:10:11.809Z,1012.35
2024-05-09T03:11:06.957Z,1012.36
2024-05-09T03:12:06.825Z,1012.32
2024-05-09T03:13:07.706Z,1012.32
2024-05-09T03:14:08.449Z,1012.30
2024-05-09T03:15:09.224Z,1012.32
2024-05-09T03:16:10.000Z,1012.31
2024-05-09T03:17:10.792Z,1012.32
2024-05-09T03:18:12.330Z,1012.33
2024-05-09T03:19:12.893Z,1012.32
2024-05-09T03:20:20.510Z,1012.34
2024-05-09T03:21:14.857Z,1012.33
2024-05-09T03:22:14.578Z,1012.34
2024-05-09T03:23:15.399Z,1012.34
2024-05-09T03:24:16.173Z,1012.34
2024-05-09T03:25:16.953Z,1012.34
2024-05-09T03:26:17.743Z,1012.34
2024-05-09T03:27:18.461Z,1012.34
2024-05-09T03:28:19.214Z,1012.34
2024-05-09T03:29:20.051Z,1012.35
2024-05-09T03:30:29.624Z,1012.34
2024-05-09T03:31:22.438Z,1012.36
2024-05-09T03:32:22.289Z,1012.37
2024-05-09T03:33:23.395Z,1012.36
2024-05-09T03:34:23.969Z,1012.37
2024-05-09T03:35:24.844Z,1012.39
2024-05-09T03:36:25.658Z,1012.39
2024-05-09T03:37:26.395Z,1012.38
2024-05-09T03:38:27.202Z,1012.37
2024-05-09T03:39:27.964Z,1012.37
2024-05-09T03:40:30.919Z,1012.36
2024-05-09T03:41:29.665Z,1012.35
2024-05-09T03:42:30.464Z,1012.35
2024-05-09T03:43:31.219Z,1012.34
2024-05-09T03:44:32.085Z,1012.35
2024-05-09T03:45:32.855Z,1012.35
2024-05-09T03:46:33.610Z,1012.35
2024-05-09T03:47:34.623Z,1012.33
2024-05-09T03:48:35.019Z,1012.32
2024-05-09T03:49:35.876Z,1012.31
2024-05-09T03:50:37.365Z,1012.31
2024-05-09T03:51:37.469Z,1012.30
2024-05-09T03:52:38.233Z,1012.30
2024-05-09T03:53:39.108Z,1012.31
2024-05-09T03:54:39.950Z,1012.32
2024-05-09T03:55:40.772Z,1012.32
2024-05-09T03:56:41.578Z,1012.32
2024-05-09T03:57:42.339Z,1012.32
2024-05-09T03:58:43.089Z,1012.33
2024-05-09T03:59:43.845Z,1012.34
2024-05-09T04:00:44.717Z,1012.35
2024-05-09T04:01:45.687Z,1012.35
2024-05-09T04:02:46.084Z,1012.34
2024-05-09T04:03:47.039Z,1012.34
2024-05-09T04:04:47.533Z,1012.33
2024-05-09T04:05:48.309Z,1012.36
2024-05-09T04:06:49.190Z,1012.35
2024-05-09T04:07:49.964Z,1012.35
2024-05-09T04:08:50.691Z,1012.34
2024-05-09T04:09:51.445Z,1012.37
2024-05-09T04:10:52.270Z,1012.37
2024-05-09T04:11:53.237Z,1012.38
2024-05-09T04:12:53.512Z,1012.38
2024-05-09T04:13:54.288Z,1012.40
2024-05-09T04:14:55.029Z,1012.41
2024-05-09T04:15:55.811Z,1012.42
2024-05-09T04:16:56.581Z,1012.43
2024-05-09T04:17:57.643Z,1012.43
2024-05-09T04:18:58.100Z,1012.44
2024-05-09T04:19:58.935Z,1012.45
2024-05-09T04:20:59.781Z,1012.44
2024-05-09T04:22:00.495Z,1012.46
2024-05-09T04:23:01.355Z,1012.47
2024-05-09T04:24:02.089Z,1012.48
2024-05-09T04:25:02.869Z,1012.48
2024-05-09T04:26:03.685Z,1012.47
2024-05-09T04:27:04.400Z,1012.47
2024-05-09T04:28:05.330Z,1012.49
2024-05-09T04:29:06.121Z,1012.47
2024-05-09T04:30:10.103Z,1012.47
2024-05-09T04:31:08.525Z,1012.47
2024-05-09T04:32:08.437Z,1012.45
2024-05-09T04:33:11.499Z,1012.47
2024-05-09T04:34:10.264Z,1012.45
2024-05-09T04:35:10.645Z,1012.46
2024-05-09T04:36:11.386Z,1012.47
2024-05-09T04:37:12.134Z,1012.47
2024-05-09T04:38:13.622Z,1012.49
2024-05-09T04:39:13.867Z,1012.51
2024-05-09T04:40:24.214Z,1012.53
2024-05-09T04:41:16.315Z,1012.51
2024-05-09T04:42:16.074Z,1012.53
2024-05-09T04:43:16.855Z,1012.53
2024-05-09T04:44:17.644Z,1012.49
2024-05-09T04:45:18.387Z,1012.49
2024-05-09T04:46:19.139Z,1012.48
2024-05-09T04:47:20.131Z,1012.47
2024-05-09T04:48:20.592Z,1012.46
2024-05-09T04:49:21.711Z,1012.45
2024-05-09T04:50:30.117Z,1012.45
2024-05-09T04:51:23.675Z,1012.46
2024-05-09T04:52:23.464Z,1012.47
2024-05-09T04:53:24.230Z,1012.50
2024-05-09T04:54:33.738Z,1012.49
2024-05-09T04:55:26.609Z,1012.49
2024-05-09T04:56:26.436Z,1012.51
2024-05-09T04:57:27.189Z,1012.50
2024-05-09T04:58:27.943Z,1012.51
2024-05-09T04:59:28.727Z,1012.49
2024-05-09T05:00:35.661Z,1012.49
2024-05-09T05:01:31.127Z,1012.49
2024-05-09T05:02:30.947Z,1012.49
2024-05-09T05:03:32.124Z,1012.51
2024-05-09T05:04:32.569Z,1012.52
2024-05-09T05:05:33.335Z,1012.55
2024-05-09T05:06:34.077Z,1012.55
2024-05-09T05:07:34.894Z,1012.55
2024-05-09T05:08:35.663Z,1012.59
2024-05-09T05:09:36.366Z,1012.58
2024-05-09T05:10:37.149Z,1012.59
2024-05-09T05:11:37.969Z,1012.60
2024-05-09T05:12:38.721Z,1012.61
2024-05-09T05:13:41.501Z,1012.61
2024-05-09T05:14:40.509Z,1012.60
2024-05-09T05:15:41.217Z,1012.58
2024-05-09T05:16:42.005Z,1012.58
2024-05-09T05:17:42.977Z,1012.56
2024-05-09T05:18:43.427Z,1012.57
2024-05-09T05:19:44.448Z,1012.55
2024-05-09T05:20:44.964Z,1012.53
2024-05-09T05:21:45.799Z,1012.55
2024-05-09T05:22:46.641Z,1012.56
2024-05-09T05:23:47.408Z,1012.56
2024-05-09T05:24:48.158Z,1012.54
2024-05-09T05:25:49.143Z,1012.55
2024-05-09T05:26:49.485Z,1012.53
2024-05-09T05:27:50.240Z,1012.52
2024-05-09T05:28:51.077Z,1012.51
2024-05-09T05:29:51.908Z,1012.52
2024-05-09T05:30:52.662Z,1012.52
2024-05-09T05:31:53.546Z,1012.50
2024-05-09T05:32:54.548Z,1012.51
2024-05-09T05:33:54.938Z,1012.50
2024-05-09T05:34:55.769Z,1012.52
2024-05-09T05:35:56.529Z,1012.53
2024-05-09T05:36:57.280Z,1012.52
2024-05-09T05:37:58.073Z,1012.53
2024-05-09T05:38:58.817Z,1012.50
2024-05-09T05:39:59.625Z,1012.50
2024-05-09T05:41:00.567Z,1012.48
2024-05-09T05:42:01.334Z,1012.49
2024-05-09T05:43:02.073Z,1012.50
2024-05-09T05:44:02.880Z,1012.51
2024-05-09T05:45:05.115Z,1012.51
2024-05-09T05:46:04.285Z,1012.54
2024-05-09T05:47:05.089Z,1012.56
2024-05-09T05:48:06.778Z,1012.54
2024-05-09T05:49:06.618Z,1012.56
2024-05-09T05:50:20.430Z,1012.55
2024-05-09T05:51:09.048Z,1012.55
2024-05-09T05:52:08.777Z,1012.56
2024-05-09T05:53:10.343Z,1012.56
2024-05-09T05:54:10.442Z,1012.60
2024-05-09T05:55:11.194Z,1012.61
2024-05-09T05:56:12.007Z,1012.63
2024-05-09T05:57:12.740Z,1012.64
2024-05-09T05:58:13.545Z,1012.65
2024-05-09T05:59:15.441Z,1012.67
2024-05-09T06:00:21.655Z,1012.67
2024-05-09T06:01:16.614Z,1012.69
2024-05-09T06:02:16.519Z,1012.70
2024-05-09T06:03:17.461Z,1012.71
2024-05-09T06:04:18.286Z,1012.70
2024-05-09T06:05:19.093Z,1012.68
2024-05-09T06:06:19.834Z,1012.70
2024-05-09T06:07:20.622Z,1012.66
2024-05-09T06:08:21.610Z,1012.63
2024-05-09T06:09:22.046Z,1012.63
2024-05-09T06:10:26.366Z,1012.60
2024-05-09T06:11:24.444Z,1012.62
2024-05-09T06:12:24.412Z,1012.63
2024-05-09T06:13:25.156Z,1012.60
2024-05-09T06:14:25.932Z,1012.62
2024-05-09T06:15:26.655Z,1012.62
2024-05-09T06:16:27.486Z,1012.59
2024-05-09T06:17:28.450Z,1012.59
2024-05-09T06:18:29.507Z,1012.58
2024-05-09T06:19:29.984Z,1012.58
2024-05-09T06:21:31.755Z,1012.57
2024-05-09T06:22:32.506Z,1012.59
2024-05-09T06:23:33.442Z,1012.58
2024-05-09T06:24:33.793Z,1012.56
2024-05-09T06:25:34.543Z,1012.57
2024-05-09T06:26:35.379Z,1012.57
2024-05-09T06:27:36.155Z,1012.58
2024-05-09T06:28:36.912Z,1012.55
2024-05-09T06:29:37.705Z,1012.54
2024-05-09T06:30:41.004Z,1012.51
2024-05-09T06:31:39.297Z,1012.51
2024-05-09T06:32:40.266Z,1012.52
2024-05-09T06:33:40.861Z,1012.52
2024-05-09T06:34:41.283Z,1012.54
2024-05-09T06:35:42.407Z,1012.54
2024-05-09T06:36:42.775Z,1012.56
2024-05-09T06:37:43.527Z,1012.57
2024-05-09T06:38:44.312Z,1012.58
2024-05-09T06:39:45.043Z,1012.57
2024-05-09T06:40:45.929Z,1012.55
2024-05-09T06:41:46.650Z,1012.59
2024-05-09T06:42:47.417Z,1012.60
2024-05-09T06:43:48.180Z,1012.61
2024-05-09T06:44:48.938Z,1012.60
2024-05-09T06:45:49.760Z,1012.60
2024-05-09T06:46:50.682Z,1012.60
2024-05-09T06:47:51.570Z,1012.60
2024-05-09T06:48:52.718Z,1012.59
2024-05-09T06:49:53.324Z,1012.58
2024-05-09T06:50:54.066Z,1012.58
2024-05-09T06:51:54.795Z,1012.59
2024-05-09T06:52:55.582Z,1012.57
2024-05-09T06:53:56.356Z,1012.57
2024-05-09T06:54:57.106Z,1012.57
2024-05-09T06:55:57.872Z,1012.60
2024-05-09T06:56:58.616Z,1012.62
2024-05-09T06:57:59.380Z,1012.61
2024-05-09T06:59:00.216Z,1012.63
2024-05-09T07:00:01.135Z,1012.61
2024-05-09T07:01:02.040Z,1012.60
2024-05-09T07:02:02.800Z,1012.61
2024-05-09T07:03:05.677Z,1012.59
2024-05-09T07:04:04.651Z,1012.57
2024-05-09T07:05:05.081Z,1012.57
2024-05-09T07:06:06.002Z,1012.58
2024-05-09T07:07:06.863Z,1012.59
2024-05-09T07:08:07.798Z,1012.58
2024-05-09T07:09:08.126Z,1012.57
2024-05-09T07:10:14.863Z,1012.59
2024-05-09T07:11:10.694Z,1012.59
2024-05-09T07:12:10.625Z,1012.59
2024-05-09T07:13:11.013Z,1012.52
2024-05-09T07:14:11.749Z,1012.52
2024-05-09T07:15:12.504Z,1012.51
2024-05-09T07:16:13.255Z,1012.50
2024-05-09T07:17:14.158Z,1012.49
2024-05-09T07:18:15.079Z,1012.51
2024-05-09T07:19:15.668Z,1012.50
2024-05-09T07:20:22.953Z,1012.48
2024-05-09T07:21:17.641Z,1012.49
2024-05-09T07:22:17.446Z,1012.51
2024-05-09T07:23:18.467Z,1012.53
2024-05-09T07:24:18.895Z,1012.53
2024-05-09T07:25:19.638Z,1012.54
2024-05-09T07:26:20.440Z,1012.54
2024-05-09T07:27:21.196Z,1012.55
2024-05-09T07:28:21.949Z,1012.54
2024-05-09T07:29:22.766Z,1012.57
2024-05-09T07:30:30.566Z,1012.57
2024-05-09T07:31:25.145Z,1012.55
2024-05-09T07:32:25.021Z,1012.55
2024-05-09T07:33:25.949Z,1012.53
2024-05-09T07:34:26.525Z,1012.52
2024-05-09T07:35:27.188Z,1012.52
2024-05-09T07:36:27.757Z,1012.53
2024-05-09T07:37:28.556Z,1012.52
2024-05-09T07:38:29.380Z,1012.50
2024-05-09T07:39:30.108Z,1012.49
2024-05-09T07:40:35.947Z,1012.48
2024-05-09T07:41:32.704Z,1012.48
2024-05-09T07:42:32.482Z,1012.46
2024-05-09T07:43:33.226Z,1012.43
2024-05-09T07:44:34.109Z,1012.40
2024-05-09T07:48:57.641Z,1012.35
2024-05-09T07:53:45.388Z,1012.33
2024-05-09T07:54:42.088Z,1012.30
2024-05-09T07:55:42.077Z,1012.27
2024-05-09T07:56:42.574Z,1012.29
2024-05-09T07:57:43.340Z,1012.26
2024-05-09T07:58:44.127Z,1012.24
2024-05-09T07:59:44.904Z,1012.22
2024-05-09T08:00:45.727Z,1012.25
2024-05-09T08:01:46.574Z,1012.24
2024-05-09T08:02:47.363Z,1012.24
2024-05-09T08:03:48.438Z,1012.23
2024-05-09T08:04:48.979Z,1012.23
2024-05-09T08:05:49.872Z,1012.24
2024-05-09T08:06:50.751Z,1012.23
2024-05-09T08:07:51.535Z,1012.22
2024-05-09T08:08:52.329Z,1012.20
2024-05-09T08:09:53.119Z,1012.20
2024-05-09T08:10:53.909Z,1012.20
2024-05-09T08:11:54.708Z,1012.19
2024-05-09T08:12:55.603Z,1012.18
2024-05-09T08:13:56.318Z,1012.17
2024-05-09T08:14:57.072Z,1012.16
2024-05-09T08:15:57.877Z,1012.14
2024-05-09T08:16:58.706Z,1012.08
2024-05-09T08:17:59.665Z,1012.05
2024-05-09T08:19:00.188Z,1012.06
2024-05-09T08:20:02.024Z,1012.06
2024-05-09T08:21:01.262Z,1012.06
2024-05-09T08:22:02.098Z,1012.06
2024-05-09T08:23:02.846Z,1012.07
2024-05-09T08:24:03.608Z,1012.07
2024-05-09T08:25:04.396Z,1012.05
2024-05-09T08:26:05.134Z,1012.05
2024-05-09T08:27:05.914Z,1011.98
2024-05-09T08:28:06.709Z,1011.96
2024-05-09T08:29:07.499Z,1011.91
2024-05-09T08:30:15.279Z,1011.92
2024-05-09T08:31:09.955Z,1011.86
2024-05-09T08:32:09.719Z,1011.85
2024-05-09T08:33:10.655Z,1011.83
2024-05-09T08:34:11.083Z,1011.82
2024-05-09T08:35:11.927Z,1011.82
2024-05-09T08:36:12.718Z,1011.82
2024-05-09T08:37:21.166Z,1011.84
2024-05-09T08:38:15.247Z,1011.81
2024-05-09T08:39:15.164Z,1011.81
2024-05-09T08:40:23.850Z,1011.80
2024-05-09T08:41:17.575Z,1011.79
2024-05-09T08:42:17.323Z,1011.77
2024-05-09T08:43:18.103Z,1011.74
2024-05-09T08:44:18.870Z,1011.73
2024-05-09T08:45:19.632Z,1011.73
2024-05-09T08:46:20.743Z,1011.71
2024-05-09T08:47:21.170Z,1011.71
2024-05-09T08:49:22.871Z,1011.67
2024-05-09T08:50:31.793Z,1011.61
2024-05-09T08:51:25.286Z,1011.63
2024-05-09T08:52:25.039Z,1011.63
2024-05-09T08:53:25.802Z,1011.60
2024-05-09T08:54:26.569Z,1011.58
2024-05-09T08:55:27.345Z,1011.58
2024-05-09T08:56:28.108Z,1011.53
2024-05-09T08:57:28.862Z,1011.55
2024-05-09T08:58:29.607Z,1011.57
2024-05-09T08:59:30.392Z,1011.54
2024-05-09T09:00:36.606Z,1011.58
2024-05-09T09:01:32.985Z,1011.58
2024-05-09T09:02:32.850Z,1011.57
2024-05-09T09:03:34.119Z,1011.55
2024-05-09T09:04:34.691Z,1011.57
2024-05-09T09:05:35.585Z,1011.57
2024-05-09T09:06:36.442Z,1011.52
2024-05-09T09:07:37.252Z,1011.52
2024-05-09T09:08:38.016Z,1011.52
2024-05-09T09:09:38.794Z,1011.48
2024-05-09T09:10:39.761Z,1011.45
2024-05-09T09:11:40.109Z,1011.44
2024-05-09T09:12:40.881Z,1011.41
2024-05-09T09:13:41.625Z,1011.41
2024-05-09T09:14:42.377Z,1011.37
2024-05-09T09:15:43.237Z,1011.38
2024-05-09T09:16:44.000Z,1011.38
2024-05-09T09:17:44.852Z,1011.37
2024-05-09T09:18:45.789Z,1011.37
2024-05-09T09:19:46.612Z,1011.33
2024-05-09T09:20:47.398Z,1011.31
2024-05-09T09:21:48.201Z,1011.37
2024-05-09T09:22:48.939Z,1011.35
2024-05-09T09:23:49.691Z,1011.33
2024-05-09T09:24:50.499Z,1011.33
2024-05-09T09:25:51.230Z,1011.28
2024-05-09T09:26:51.994Z,1011.31
2024-05-09T09:27:52.780Z,1011.30
2024-05-09T09:28:53.538Z,1011.29
2024-05-09T09:29:54.295Z,1011.27
2024-05-09T09:30:55.131Z,1011.26
2024-05-09T09:31:55.847Z,1011.29
2024-05-09T09:32:56.733Z,1011.22
2024-05-09T09:33:57.873Z,1011.21
2024-05-09T09:34:58.225Z,1011.24
2024-05-09T09:35:58.975Z,1011.24
2024-05-09T09:36:59.796Z,1011.20
2024-05-09T09:38:00.543Z,1011.20
2024-05-09T09:39:01.274Z,1011.19
2024-05-09T09:40:02.078Z,1011.17
2024-05-09T09:41:02.992Z,1011.17
2024-05-09T09:42:03.802Z,1011.18
2024-05-09T09:43:04.607Z,1011.18
2024-05-09T09:44:05.332Z,1011.13
2024-05-09T09:45:06.154Z,1011.10
2024-05-09T09:46:09.644Z,1011.10
2024-05-09T09:47:07.550Z,1011.09
2024-05-09T09:48:08.330Z,1011.06
2024-05-09T09:49:09.277Z,1011.08
2024-05-09T09:50:14.465Z,1011.03
2024-05-09T09:51:11.315Z,1011.02
2024-05-09T09:52:11.462Z,1011.00
2024-05-09T09:53:11.736Z,1011.03
2024-05-09T09:54:12.503Z,1011.03
2024-05-09T09:55:13.385Z,1011.00
2024-05-09T09:56:14.354Z,1010.99
2024-05-09T09:57:15.048Z,1010.97
2024-05-09T09:58:15.894Z,1010.98
2024-05-09T09:59:16.616Z,1010.99
2024-05-09T10:00:23.995Z,1010.99
2024-05-09T10:01:19.131Z,1010.99
2024-05-09T10:02:19.215Z,1011.00
2024-05-09T10:03:19.758Z,1010.99
2024-05-09T10:04:20.591Z,1010.94
2024-05-09T10:05:21.533Z,1010.91
2024-05-09T10:06:21.857Z,1010.86
2024-05-09T10:07:22.694Z,1010.85
2024-05-09T10:08:23.437Z,1010.88
2024-05-09T10:09:24.208Z,1010.86
2024-05-09T10:10:31.485Z,1010.82
2024-05-09T10:11:26.661Z,1010.81
2024-05-09T10:12:26.453Z,1010.74
2024-05-09T10:13:27.243Z,1010.72
2024-05-09T10:14:27.982Z,1010.73
2024-05-09T10:15:28.819Z,1010.76
2024-05-09T10:16:29.629Z,1010.77
2024-05-09T10:17:30.427Z,1010.77
2024-05-09T10:18:32.741Z,1010.73
2024-05-09T10:19:32.093Z,1010.77
2024-05-09T10:20:33.158Z,1010.80
2024-05-09T10:21:33.465Z,1010.78
2024-05-09T10:22:34.196Z,1010.80
2024-05-09T10:23:34.980Z,1010.78
2024-05-09T10:24:35.784Z,1010.76
2024-05-09T10:25:36.551Z,1010.75
2024-05-09T10:26:37.348Z,1010.74
2024-05-09T10:27:38.058Z,1010.76
2024-05-09T10:28:38.844Z,1010.76
2024-05-09T10:29:39.585Z,1010.72
2024-05-09T10:30:42.755Z,1010.73
2024-05-09T10:31:41.152Z,1010.74
2024-05-09T10:32:41.492Z,1010.72
2024-05-09T10:33:42.626Z,1010.70
2024-05-09T10:34:43.016Z,1010.72
2024-05-09T10:35:43.759Z,1010.69
2024-05-09T10:36:44.591Z,1010.69
2024-05-09T10:37:45.385Z,1010.67
2024-05-09T10:38:46.153Z,1010.73
2024-05-09T10:39:46.941Z,1010.73
2024-05-09T10:40:47.684Z,1010.73
2024-05-09T10:41:48.449Z,1010.77
2024-05-09T10:42:49.263Z,1010.77
2024-05-09T10:43:50.001Z,1010.75
2024-05-09T10:44:50.758Z,1010.75
2024-05-09T10:45:51.571Z,1010.76
2024-05-09T10:46:52.314Z,1010.74
2024-05-09T10:47:53.387Z,1010.69
2024-05-09T10:48:54.401Z,1010.70
2024-05-09T10:49:54.872Z,1010.67
2024-05-09T10:50:55.638Z,1010.66
2024-05-09T10:51:56.495Z,1010.65
2024-05-09T10:52:57.234Z,1010.67
2024-05-09T10:53:57.989Z,1010.67
2024-05-09T10:54:59.952Z,1010.67
2024-05-09T10:55:59.663Z,1010.66
2024-05-09T10:57:00.439Z,1010.65
2024-05-09T10:58:01.175Z,1010.69
2024-05-09T10:59:01.946Z,1010.65
2024-05-09T11:00:02.750Z,1010.65
2024-05-09T11:01:06.302Z,1010.62
2024-05-09T11:02:04.582Z,1010.63
2024-05-09T11:03:04.956Z,1010.64
2024-05-09T11:04:05.902Z,1010.62
2024-05-09T11:05:06.357Z,1010.62
2024-05-09T11:06:07.517Z,1010.60
2024-05-09T11:07:07.961Z,1010.61
2024-05-09T11:08:08.685Z,1010.61
2024-05-09T11:09:09.435Z,1010.59
2024-05-09T11:10:12.630Z,1010.56
2024-05-09T11:11:10.879Z,1010.53
2024-05-09T11:12:11.700Z,1010.51
2024-05-09T11:13:12.603Z,1010.51
2024-05-09T11:14:13.328Z,1010.50
2024-05-09T11:15:14.088Z,1010.48
2024-05-09T11:16:14.910Z,1010.49
2024-05-09T11:17:15.812Z,1010.50
2024-05-09T11:18:16.904Z,1010.54
2024-05-09T11:19:17.419Z,1010.54
2024-05-09T11:20:26.416Z,1010.56
2024-05-09T11:21:19.410Z,1010.54
2024-05-09T11:22:19.310Z,1010.54
2024-05-09T11:23:20.129Z,1010.53
2024-05-09T11:24:20.916Z,1010.49
2024-05-09T11:25:21.707Z,1010.47
2024-05-09T11:26:22.542Z,1010.46
2024-05-09T11:27:23.269Z,1010.43
2024-05-09T11:28:24.068Z,1010.42
2024-05-09T11:29:24.834Z,1010.39
2024-05-09T11:30:31.583Z,1010.39
2024-05-09T11:31:27.563Z,1010.38
2024-05-09T11:32:27.147Z,1010.38
2024-05-09T11:33:28.068Z,1010.36
2024-05-09T11:34:29.026Z,1010.31
2024-05-09T11:35:29.770Z,1010.32
2024-05-09T11:36:30.581Z,1010.30
2024-05-09T11:37:34.044Z,1010.30
2024-05-09T11:38:31.970Z,1010.28
2024-05-09T11:39:32.714Z,1010.26
2024-05-09T11:40:34.645Z,1010.25
2024-05-09T11:41:34.110Z,1010.26
2024-05-09T11:42:34.943Z,1010.27
2024-05-09T11:43:35.687Z,1010.25
2024-05-09T11:44:36.407Z,1010.27
2024-05-09T11:45:37.312Z,1010.26
2024-05-09T11:46:38.051Z,1010.28
2024-05-09T11:47:38.885Z,1010.30
2024-05-09T11:48:39.845Z,1010.28
2024-05-09T11:49:40.371Z,1010.23
2024-05-09T11:50:41.109Z,1010.21
2024-05-09T11:51:41.860Z,1010.15
2024-05-09T11:52:42.620Z,1010.10
2024-05-09T11:53:43.368Z,1010.08
2024-05-09T11:54:44.134Z,1010.07
2024-05-09T11:55:44.900Z,1010.01
2024-05-09T11:56:45.653Z,1009.96
2024-05-09T11:57:46.549Z,1009.93
2024-05-09T11:58:47.251Z,1009.91
2024-05-09T11:59:48.033Z,1009.87
2024-05-09T12:00:49.068Z,1009.89
2024-05-09T12:01:49.716Z,1009.90
2024-05-09T12:02:50.050Z,1009.89
2024-05-09T12:03:50.885Z,1009.91
2024-05-09T12:04:51.757Z,1009.89
2024-05-09T12:05:52.578Z,1009.87
2024-05-09T12:06:53.392Z,1009.84
2024-05-09T12:07:54.123Z,1009.88
2024-05-09T12:08:54.879Z,1009.90
2024-05-09T12:09:55.656Z,1009.89
2024-05-09T12:10:57.111Z,1009.87
2024-05-09T12:11:57.197Z,1009.78
2024-05-09T12:12:58.041Z,1009.81
2024-05-09T12:13:58.773Z,1009.80
2024-05-09T12:14:59.558Z,1009.81
2024-05-09T12:16:00.316Z,1009.79
2024-05-09T12:17:01.053Z,1009.78
2024-05-09T12:18:03.887Z,1009.77
2024-05-09T12:19:02.736Z,1009.72
2024-05-09T12:20:06.958Z,1009.70
2024-05-09T12:21:05.258Z,1009.72
2024-05-09T12:22:05.762Z,1009.74
2024-05-09T12:23:06.029Z,1009.68
2024-05-09T12:24:06.819Z,1009.70
2024-05-09T12:25:07.747Z,1009.69